Hlavní strana
METAR-TAF:

METAR-TAF

Letiště :

Letiště Tunošna

Jaroslavl, Rusko

zeměpisná šířka: 57-33-38N, zeměpisná délka: 040-09-27E, výška: 87 m

Aktuální stav počasí

Zpráva byla vytvořena před 11 minutami, v 23:30 UTC
Jihojihozápadní vítr 8 kt
Teplota 11°C
Vlhkost vzduchu 87%
Tlak 988 hPa
Viditelnost 10 km a více
Zataženo ve výšce 1500 ft
slabý déšť

METAR: UUDL 212330Z 20004MPS 9999 -RA OVC015 11/09 Q0988 R23/190055 NOSIG RMK QFE733

Čas: 02:41 (23:41 UTC)

Předpověď počasí

Zpráva byla vytvořena před 41 minutami, v 23:00 UTC
Předpověď platná od 22 v 00 UTC do 22 v 24 UTC
Jihojihozápadní vítr 12 kt s nárazy do 25 kt
Viditelnost: 8000 m
Oblačno až skoro zataženo ve výšce 2000 ft
Dočasný
od 22 v 00 UTC do 22 v 15 UTC
Západojihozápadní vítr 16 kt s nárazy do 31 kt
Oblačno až skoro zataženo ve výšce 1000 ft

TAF: UUDL 212300Z 2200/2224 21006G13MPS 8000 BKN020 TX11/2212Z TN06/2203Z TEMPO 2200/2215 24008G16MPS BKN010

Stav a předpovědi počasí z více než 4 000 letišť (zprávy METAR a TAF).

Červené a žluté tečky na mapě představují dostupné meteorologické stanice.

Když kurzor umístíte na tečku, zobrazí se název stanice.

Pak kliknutím zobrazíte stav a předpověď počasí.

Chcete-li změnit mapu, kliknutím na zelené tlačítko se znaménkem +mapu přiblížíte, kliknutím na zelené tlačítko se znaménkem – mapu oddálíte a kliknutím na zelené šipky přejdete na sousední mapy.


METAR-TAF: